Time;durP1;ratioP1;P1;durP2;ratioP2;P2;SDS_P1;SDS_P2;PMS_P1;PMS_P2;Temp;Humidity;BMP_temperature;BMP_pressure;BME280_temperature;BME280_humidity;BME280_pressure;Samples;Min_cycle;Max_cycle;Signal;HPM_P1;HPM_P2
2021/10/01 03:17:00;;;;;;;;;;;;;;;9.14;72.73;100140.44;5514199;22;19949;-76
2021/10/01 03:19:26;;;;;;;;;;;;;;;9.16;72.69;100134.22;4993180;28;20265;-78
2021/10/01 03:21:51;;;;;;;;;;;;;;;9.08;73.15;100141.50;4994576;28;19917;-78
2021/10/01 03:24:18;;;;;;;;;;;;;;;8.96;72.38;100126.88;4994609;28;19937;-77
2021/10/01 03:26:43;;;;;;;;;;;;;;;9.04;72.30;100134.59;4994408;28;19925;-78
2021/10/01 03:29:10;;;;;;;;;;;;;;;9.13;72.31;100130.81;4993967;28;19930;-77
2021/10/01 03:31:35;;;;;;;;;;;;;;;9.09;72.22;100122.97;4993197;28;20020;-77
2021/10/01 03:34:01;;;;;;;;;;;;;;;9.07;73.07;100123.91;4993061;28;20334;-77
2021/10/01 03:36:26;;;;;;;;;;;;;;;9.05;74.24;100123.09;4994247;28;19968;-78
2021/10/01 03:38:55;;;;;;;;;;;;;;;9.12;75.33;100119.34;4994347;28;19914;-80
2021/10/01 03:41:20;;;;;;;;;;;;;;;9.13;76.74;100118.44;4994296;28;19921;-81
2021/10/01 03:43:46;;;;;;;;;;;;;;;9.18;78.17;100120.94;4994116;28;19917;-81
2021/10/01 03:46:11;;;;;;;;;;;;;;;9.09;78.02;100114.16;4992852;28;19922;-79
2021/10/01 03:48:36;;;;;;;;;;;;;;;8.94;78.71;100117.28;4994005;28;19918;-79
2021/10/01 03:51:01;;;;;;;;;;;;;;;8.85;78.55;100118.41;4976470;28;19918;-79
2021/10/01 03:53:27;;;;;;;;;;;;;;;8.83;78.86;100105.25;4976557;28;19918;-79
2021/10/01 03:55:52;;;;;;;;;;;;;;;8.96;79.61;100105.75;4993602;28;20402;-79
2021/10/01 03:58:17;;;;;;;;;;;;;;;8.96;79.69;100107.53;4976328;28;19921;-79
2021/10/01 04:00:45;;;;;;;;;;;;;;;9.05;82.23;100107.25;4992502;28;20381;-80
2021/10/01 04:03:10;;;;;;;;;;;;;;;9.05;82.28;100107.25;4993562;28;19925;-80
2021/10/01 04:05:36;;;;;;;;;;;;;;;9.07;83.28;100111.56;4993884;28;20396;-80
2021/10/01 04:08:06;;;;;;;;;;;;;;;8.99;82.56;100107.44;4993683;28;19919;-80
2021/10/01 04:10:31;;;;;;;;;;;;;;;8.82;84.65;100108.84;4992290;28;19918;-80
2021/10/01 04:12:57;;;;;;;;;;;;;;;8.89;84.92;100115.63;4975916;28;19972;-80
2021/10/01 04:15:22;;;;;;;;;;;;;;;8.96;82.57;100111.03;4993640;28;19972;-80
2021/10/01 04:17:48;;;;;;;;;;;;;;;9.00;83.83;100107.38;4992075;28;19925;-79
2021/10/01 04:20:13;;;;;;;;;;;;;;;8.93;83.13;100107.63;4993413;28;19918;-80
2021/10/01 04:22:38;;;;;;;;;;;;;;;8.87;81.84;100109.53;4993431;28;19968;-80
2021/10/01 04:25:04;;;;;;;;;;;;;;;8.85;82.61;100111.34;4993246;28;19925;-80
2021/10/01 04:27:29;;;;;;;;;;;;;;;8.84;82.56;100114.91;4975751;28;20645;-80
2021/10/01 04:29:54;;;;;;;;;;;;;;;8.90;82.97;100106.81;4975771;28;19972;-79
2021/10/01 04:32:19;;;;;;;;;;;;;;;8.87;81.75;100116.59;4991812;28;19972;-79
2021/10/01 04:35:06;;;;;;;;;;;;;;;8.93;82.69;100119.03;4975781;28;20325;-80
2021/10/01 04:37:31;;;;;;;;;;;;;;;8.93;81.65;100115.53;4975715;28;19921;-80
2021/10/01 04:39:57;;;;;;;;;;;;;;;8.87;81.76;100120.13;4975499;28;19950;-79
2021/10/01 04:42:22;;;;;;;;;;;;;;;8.83;81.35;100115.81;4993041;28;19924;-80
2021/10/01 04:44:48;;;;;;;;;;;;;;;8.78;81.27;100120.38;4975597;28;19918;-80
2021/10/01 04:47:13;;;;;;;;;;;;;;;8.75;80.54;100111.69;4991528;28;19965;-79
2021/10/01 04:49:38;;;;;;;;;;;;;;;8.77;80.51;100112.50;4992921;28;19964;-79
2021/10/01 08:19:53;;;;;;;;;;;;;;;8.94;75.78;100072.38;5013339;28;19941;-78
2021/10/01 08:22:19;;;;;;;;;;;;;;;8.88;75.56;100061.03;5013054;28;20376;-79
2021/10/01 08:24:44;;;;;;;;;;;;;;;8.94;75.63;100067.94;4995378;28;20272;-79
2021/10/01 08:27:09;;;;;;;;;;;;;;;8.87;76.53;100061.97;5012976;28;19925;-79
2021/10/01 08:29:35;;;;;;;;;;;;;;;8.94;76.83;100061.78;5011518;28;19922;-78
2021/10/01 08:32:00;;;;;;;;;;;;;;;8.94;77.28;100056.50;5012865;28;19921;-79
2021/10/01 08:34:30;;;;;;;;;;;;;;;8.94;76.73;100057.34;5012753;28;19925;-79
2021/10/01 08:36:55;;;;;;;;;;;;;;;9.00;76.74;100051.00;5012770;28;19917;-78
2021/10/01 08:39:21;;;;;;;;;;;;;;;8.99;76.63;100057.22;5012725;28;19917;-80
2021/10/01 08:41:46;;;;;;;;;;;;;;;8.97;76.19;100045.84;5012689;28;20426;-78
2021/10/01 08:44:12;;;;;;;;;;;;;;;8.96;76.73;100046.75;5011285;28;19918;-78
2021/10/01 08:46:37;;;;;;;;;;;;;;;9.01;76.76;100045.66;5012296;28;19965;-79
2021/10/01 08:49:04;;;;;;;;;;;;;;;9.02;77.03;100041.25;5012470;28;19921;-80
2021/10/01 08:51:29;;;;;;;;;;;;;;;9.06;76.43;100041.13;5012543;28;19968;-78
2021/10/01 08:53:56;;;;;;;;;;;;;;;9.03;76.25;100043.84;5010194;28;20204;-80
2021/10/01 08:56:26;;;;;;;;;;;;;;;9.02;76.74;100035.97;5011173;28;19972;-79
2021/10/01 08:58:51;;;;;;;;;;;;;;;9.01;77.00;100034.22;5010972;28;19922;-78
2021/10/01 09:01:16;;;;;;;;;;;;;;;9.02;76.96;100035.97;5012339;28;19984;-80
2021/10/01 09:03:42;;;;;;;;;;;;;;;9.00;76.93;100032.50;5012249;28;19921;-78
2021/10/01 09:06:08;;;;;;;;;;;;;;;9.03;77.02;100035.03;5012573;28;19922;-80
2021/10/01 09:08:47;;;;;;;;;;;;;;;9.05;76.81;100020.03;5012017;28;20434;-78
2021/10/01 09:11:14;;;;;;;;;;;;;;;9.13;77.22;100019.78;5012156;28;19928;-79
2021/10/01 09:13:40;;;;;;;;;;;;;;;9.14;76.91;100014.41;5010844;28;20345;-79
2021/10/01 09:16:06;;;;;;;;;;;;;;;9.13;76.71;100007.41;5012282;28;19918;-78
2021/10/01 09:18:33;;;;;;;;;;;;;;;9.10;76.80;100007.50;5012181;28;20016;-78
2021/10/01 09:21:12;;;;;;;;;;;;;;;9.19;76.58;99999.28;4994703;28;19960;-80
2021/10/01 09:23:42;;;;;;;;;;;;;;;9.18;76.40;100000.19;5011345;28;20300;-79
2021/10/01 09:26:13;;;;;;;;;;;;;;;9.25;76.63;99993.78;5011411;28;20281;-81
2021/10/01 09:28:47;;;;;;;;;;;;;;;9.26;76.23;99994.63;5010005;28;19947;-78
2021/10/01 09:31:32;;;;;;;;;;;;;;;9.24;76.21;99989.41;5011912;28;19972;-80
2021/10/01 09:33:57;;;;;;;;;;;;;;;9.30;76.50;99988.31;5011177;28;19927;-81
2021/10/01 09:36:25;;;;;;;;;;;;;;;9.29;76.10;99977.81;5012275;28;20283;-80
2021/10/01 09:38:51;;;;;;;;;;;;;;;9.30;76.55;99976.88;5011374;28;20392;-79
2021/10/01 09:41:22;;;;;;;;;;;;;;;9.30;76.44;99975.09;5011813;28;19980;-79
2021/10/01 09:43:57;;;;;;;;;;;;;;;9.30;76.43;99971.59;5010647;28;19917;-81
2021/10/01 09:46:22;;;;;;;;;;;;;;;9.33;76.57;99967.06;5011407;28;19971;-78
2021/10/01 09:48:47;;;;;;;;;;;;;;;9.33;76.30;99966.19;4994180;28;19926;-79
2021/10/01 09:51:12;;;;;;;;;;;;;;;9.36;76.35;99971.38;5011988;28;19917;-80
2021/10/01 09:53:48;;;;;;;;;;;;;;;9.34;76.22;99957.34;5014890;28;20365;-79
2021/10/01 09:56:21;;;;;;;;;;;;;;;9.40;76.32;99952.72;5015483;28;19917;-79
2021/10/01 09:59:02;;;;;;;;;;;;;;;9.37;76.36;99942.22;4996747;28;19921;-79
2021/10/01 10:01:27;;;;;;;;;;;;;;;9.43;76.09;99941.16;4997995;28;19922;-78
2021/10/01 10:03:52;;;;;;;;;;;;;;;9.43;75.80;99934.09;5015594;28;20038;-78
2021/10/01 10:06:17;;;;;;;;;;;;;;;9.51;75.82;99933.81;5015570;28;19924;-79
2021/10/01 10:08:43;;;;;;;;;;;;;;;9.54;75.71;99923.13;5015467;28;19922;-81
2021/10/01 10:11:15;;;;;;;;;;;;;;;9.54;75.74;99920.47;4997833;28;20299;-79
2021/10/01 10:13:43;;;;;;;;;;;;;;;9.59;76.07;99918.53;5014064;28;20312;-78
2021/10/01 10:16:14;;;;;;;;;;;;;;;9.62;76.23;99914.88;5015348;28;20011;-79
2021/10/01 10:18:40;;;;;;;;;;;;;;;9.64;75.65;99907.78;4997629;28;19925;-79
2021/10/01 10:21:05;;;;;;;;;;;;;;;9.69;75.36;99907.59;5015521;28;19945;-81
2021/10/01 10:23:31;;;;;;;;;;;;;;;9.64;75.10;99908.63;4997643;28;19949;-78
2021/10/01 10:25:56;;;;;;;;;;;;;;;9.68;75.38;99903.22;5015118;28;20039;-78
2021/10/01 10:28:21;;;;;;;;;;;;;;;9.65;75.26;99898.91;4996335;28;20292;-78
2021/10/01 10:30:51;;;;;;;;;;;;;;;9.63;75.84;99901.59;4997375;28;19925;-79
2021/10/01 10:33:35;;;;;;;;;;;;;;;9.66;75.99;99899.78;4997069;28;19921;-79
2021/10/01 10:36:00;;;;;;;;;;;;;;;9.73;75.80;99890.69;4997378;28;19924;-79
2021/10/01 10:38:35;;;;;;;;;;;;;;;9.64;75.29;99892.75;5015090;28;19922;-78
2021/10/01 10:41:18;;;;;;;;;;;;;;;9.66;76.19;99892.69;5014801;28;19917;-78
2021/10/01 10:43:47;;;;;;;;;;;;;;;9.76;75.66;99883.47;5013415;28;19917;-78
2021/10/01 10:46:31;;;;;;;;;;;;;;;9.75;76.00;99876.47;5014837;28;19922;-81
2021/10/01 10:49:19;;;;;;;;;;;;;;;9.78;75.32;99871.06;5014709;28;19929;-80
2021/10/01 10:51:59;;;;;;;;;;;;;;;9.80;75.52;99865.72;4996360;28;19917;-78
2021/10/01 10:54:25;;;;;;;;;;;;;;;9.84;75.54;99861.16;5014743;28;19918;-79
2021/10/01 10:57:11;;;;;;;;;;;;;;;9.83;74.91;99857.66;5014478;28;19925;-79
2021/10/01 10:59:36;;;;;;;;;;;;;;;9.87;75.54;99853.97;5004730;28;19971;-78
2021/10/01 11:02:30;;;;;;;;;;;;;;;9.87;75.41;99853.97;5014450;28;20357;-79
2021/10/01 11:05:14;;;;;;;;;;;;;;;9.85;75.71;99850.53;5012634;28;20335;-79
2021/10/01 11:08:01;;;;;;;;;;;;;;;9.92;75.25;99853.78;5014488;28;19922;-78
2021/10/01 11:10:35;;;;;;;;;;;;;;;9.89;75.00;99848.63;5014459;28;20024;-77
2021/10/01 11:13:15;;;;;;;;;;;;;;;9.92;74.85;99849.34;5013968;28;20297;-79
2021/10/01 11:15:40;;;;;;;;;;;;;;;9.91;74.47;99855.59;5014005;28;19922;-79
2021/10/01 11:18:13;;;;;;;;;;;;;;;9.94;74.64;99842.22;5014246;28;19921;-78
2021/10/01 11:20:38;;;;;;;;;;;;;;;9.93;74.40;99837.00;5013694;28;19922;-80
2021/10/01 11:23:13;;;;;;;;;;;;;;;9.91;75.37;99826.47;5014258;28;19918;-78
2021/10/01 11:25:42;;;;;;;;;;;;;;;9.96;75.60;99823.66;5013553;28;19921;-79
2021/10/01 11:28:09;;;;;;;;;;;;;;;9.95;74.47;99822.75;5013748;28;20512;-79
2021/10/01 11:30:37;;;;;;;;;;;;;;;10.00;74.67;99827.88;5011985;28;19917;-79
2021/10/01 11:33:09;;;;;;;;;;;;;;;9.97;74.20;99820.94;5013377;28;19928;-80
2021/10/01 11:35:48;;;;;;;;;;;;;;;9.99;75.36;99824.38;5013955;28;19917;-80
2021/10/01 11:38:20;;;;;;;;;;;;;;;9.95;74.46;99825.41;5013770;28;19924;-80
2021/10/01 11:40:47;;;;;;;;;;;;;;;9.94;75.00;99826.34;5013838;28;19992;-80
2021/10/01 11:43:13;;;;;;;;;;;;;;;9.99;74.74;99828.81;5012797;28;19921;-80
2021/10/01 11:45:39;;;;;;;;;;;;;;;10.00;75.19;99820.81;5013845;28;19929;-79
2021/10/01 11:48:08;;;;;;;;;;;;;;;9.96;75.38;99823.66;5013587;28;19917;-80
2021/10/01 11:50:34;;;;;;;;;;;;;;;10.00;75.15;99818.16;5013467;28;20306;-79
2021/10/01 11:52:59;;;;;;;;;;;;;;;10.03;74.89;99803.06;5013406;28;19936;-81
2021/10/01 11:55:26;;;;;;;;;;;;;;;10.00;74.46;99809.34;5013396;28;19918;-80
2021/10/01 11:57:51;;;;;;;;;;;;;;;10.03;74.78;99803.94;4995726;28;19964;-80
2021/10/01 12:00:18;;;;;;;;;;;;;;;10.06;75.05;99784.44;5012227;28;20355;-79
2021/10/01 12:02:45;;;;;;;;;;;;;;;10.05;73.43;99787.97;4995597;28;19921;-79
2021/10/01 12:05:17;;;;;;;;;;;;;;;10.12;74.14;99789.47;5012486;28;19971;-81
2021/10/01 12:07:53;;;;;;;;;;;;;;;10.13;74.39;99777.94;5013115;28;19917;-81
2021/10/01 12:10:19;;;;;;;;;;;;;;;10.13;73.25;99772.66;5013027;28;19917;-79
2021/10/01 12:12:57;;;;;;;;;;;;;;;10.14;74.07;99761.13;5013231;28;19928;-78
2021/10/01 12:15:36;;;;;;;;;;;;;;;10.18;74.85;99760.09;5011529;28;19924;-79
2021/10/01 12:18:02;;;;;;;;;;;;;;;10.16;74.86;99757.50;5013495;28;20355;-80
2021/10/01 12:20:28;;;;;;;;;;;;;;;10.14;73.12;99743.47;5013121;28;20295;-81
2021/10/01 12:22:53;;;;;;;;;;;;;;;10.16;72.76;99735.44;5013149;28;20000;-80
2021/10/01 12:25:25;;;;;;;;;;;;;;;10.17;72.19;99742.47;5012709;28;19920;-80
2021/10/01 12:27:51;;;;;;;;;;;;;;;10.18;73.54;99728.31;4995364;28;19917;-79
2021/10/01 12:30:17;;;;;;;;;;;;;;;10.22;73.25;99729.91;5011538;28;19924;-80
2021/10/01 12:32:45;;;;;;;;;;;;;;;10.28;72.49;99724.34;5013002;28;20308;-79
2021/10/01 12:35:13;;;;;;;;;;;;;;;10.29;72.88;99712.84;5012882;28;19917;-78
2021/10/01 12:37:40;;;;;;;;;;;;;;;10.24;73.20;99708.66;5012626;28;19917;-78
2021/10/01 12:40:06;;;;;;;;;;;;;;;10.26;72.29;99712.97;4995080;28;19928;-80
2021/10/01 12:42:33;;;;;;;;;;;;;;;10.25;72.62;99716.53;5011967;28;20285;-81
2021/10/01 12:45:13;;;;;;;;;;;;;;;10.27;72.65;99714.66;5011018;28;19922;-80
2021/10/01 12:47:40;;;;;;;;;;;;;;;10.27;72.65;99712.03;5012704;28;20262;-80
2021/10/01 12:50:05;;;;;;;;;;;;;;;10.29;71.86;99707.53;5012682;28;19921;-80
2021/10/01 12:52:31;;;;;;;;;;;;;;;10.31;72.70;99704.84;5012687;28;19924;-77
2021/10/01 12:55:07;;;;;;;;;;;;;;;10.27;72.10;99706.72;4994168;28;19924;-77
2021/10/01 12:57:39;;;;;;;;;;;;;;;10.29;73.42;99712.84;5011785;28;19924;-80
2021/10/01 13:00:04;;;;;;;;;;;;;;;10.32;73.77;99710.09;5010428;28;19914;-80
2021/10/01 13:02:42;;;;;;;;;;;;;;;10.32;73.34;99707.44;5012383;28;19972;-79
2021/10/01 13:05:17;;;;;;;;;;;;;;;10.34;73.40;99704.72;5011960;28;20036;-78
2021/10/01 13:07:47;;;;;;;;;;;;;;;10.29;72.56;99704.91;5012304;28;19917;-81
2021/10/01 13:10:12;;;;;;;;;;;;;;;10.37;72.78;99696.66;5012225;28;19992;-79
2021/10/01 13:12:39;;;;;;;;;;;;;;;10.37;73.29;99696.66;5012347;28;20413;-78
2021/10/01 13:15:08;;;;;;;;;;;;;;;10.37;73.67;99701.94;5010361;28;20273;-78
2021/10/01 13:17:33;;;;;;;;;;;;;;;10.47;74.57;99694.47;5012336;28;20008;-79
2021/10/01 13:19:59;;;;;;;;;;;;;;;10.47;73.34;99687.38;5011966;28;20012;-79
2021/10/01 13:22:24;;;;;;;;;;;;;;;10.46;72.83;99690.09;4994688;28;20124;-79
2021/10/01 13:24:55;;;;;;;;;;;;;;;10.47;73.09;99694.47;4994547;28;19975;-80
2021/10/01 13:27:21;;;;;;;;;;;;;;;10.48;73.20;99686.44;5011243;28;19952;-78
2021/10/01 13:29:46;;;;;;;;;;;;;;;10.45;74.19;99688.34;5010817;28;19925;-78
2021/10/01 13:32:12;;;;;;;;;;;;;;;10.42;74.66;99683.19;5011977;28;19925;-80
2021/10/01 13:34:38;;;;;;;;;;;;;;;10.48;73.41;99672.31;5011995;28;20012;-80
2021/10/01 13:37:03;;;;;;;;;;;;;;;10.47;74.13;99660.03;5011924;28;20061;-80
2021/10/01 13:39:28;;;;;;;;;;;;;;;10.51;73.69;99664.25;5012004;28;19918;-79
2021/10/01 13:41:56;;;;;;;;;;;;;;;10.48;73.36;99656.44;5011881;28;20559;-78
2021/10/01 13:44:21;;;;;;;;;;;;;;;10.53;74.50;99665.91;5010489;28;19921;-81
2021/10/01 13:46:47;;;;;;;;;;;;;;;10.53;73.50;99660.59;5012078;28;20372;-80
2021/10/01 13:49:12;;;;;;;;;;;;;;;10.55;73.07;99663.19;5011712;28;19965;-77
2021/10/01 13:51:37;;;;;;;;;;;;;;;10.57;74.55;99657.81;5012026;28;19917;-79
2021/10/01 13:54:02;;;;;;;;;;;;;;;10.56;73.45;99653.44;5011788;28;20351;-79
2021/10/01 13:56:28;;;;;;;;;;;;;;;10.54;73.12;99648.22;4994340;28;19917;-78
2021/10/01 13:58:53;;;;;;;;;;;;;;;10.61;73.24;99652.31;5010749;28;19924;-78
2021/10/01 14:01:18;;;;;;;;;;;;;;;10.60;73.59;99649.75;5011829;28;19976;-81
2021/10/01 14:03:44;;;;;;;;;;;;;;;10.57;74.31;99656.03;5011840;28;19921;-78
2021/10/01 14:06:09;;;;;;;;;;;;;;;10.61;74.34;99640.84;5011750;28;20100;-78
2021/10/01 14:08:34;;;;;;;;;;;;;;;10.63;73.61;99634.56;5011829;28;19921;-78
2021/10/01 14:11:00;;;;;;;;;;;;;;;10.66;73.48;99631.78;4994160;28;19969;-80
2021/10/01 14:13:25;;;;;;;;;;;;;;;10.68;74.55;99632.53;5010198;28;19917;-80
2021/10/01 14:15:52;;;;;;;;;;;;;;;10.68;74.14;99629.03;5011835;28;19921;-78
2021/10/01 14:18:18;;;;;;;;;;;;;;;10.67;74.43;99628.19;5011474;28;19924;-79
2021/10/01 14:20:43;;;;;;;;;;;;;;;10.69;74.57;99628.97;5011607;28;19925;-80
2021/10/01 14:23:09;;;;;;;;;;;;;;;10.69;74.49;99631.63;4994028;28;20373;-79
2021/10/01 14:25:35;;;;;;;;;;;;;;;10.66;74.45;99629.13;5011525;28;19921;-78
2021/10/01 14:28:01;;;;;;;;;;;;;;;10.79;73.45;99636.50;5011703;28;19996;-78
2021/10/01 14:30:30;;;;;;;;;;;;;;;10.81;73.35;99634.66;5010054;28;20015;-78
2021/10/01 14:32:56;;;;;;;;;;;;;;;10.76;74.24;99636.66;5011451;28;19975;-79
2021/10/01 14:35:22;;;;;;;;;;;;;;;10.78;75.04;99640.09;4993976;28;19921;-79
2021/10/01 14:37:47;;;;;;;;;;;;;;;10.75;73.64;99634.91;5011404;28;20464;-78
2021/10/01 14:40:12;;;;;;;;;;;;;;;10.79;73.63;99636.50;5014921;28;19945;-77
2021/10/01 14:42:38;;;;;;;;;;;;;;;10.81;74.27;99627.53;5014990;28;19976;-78
2021/10/01 14:45:05;;;;;;;;;;;;;;;10.80;74.15;99630.25;4992510;28;19961;-79
2021/10/01 14:47:30;;;;;;;;;;;;;;;10.85;73.17;99620.31;4995208;28;19918;-78
2021/10/01 14:49:56;;;;;;;;;;;;;;;10.83;74.36;99622.16;4995051;28;19933;-78
2021/10/01 14:52:22;;;;;;;;;;;;;;;10.87;73.24;99615.81;4994322;28;19972;-78
2021/10/01 14:54:47;;;;;;;;;;;;;;;10.90;73.61;99613.03;4994591;28;20379;-80
2021/10/01 14:57:13;;;;;;;;;;;;;;;10.86;73.16;99603.47;4994534;28;19922;-79
2021/10/01 14:59:38;;;;;;;;;;;;;;;10.85;74.01;99604.41;4993857;28;20357;-78
2021/10/01 15:02:03;;;;;;;;;;;;;;;10.87;73.92;99605.22;4994725;28;20258;-79
2021/10/01 15:04:28;;;;;;;;;;;;;;;10.83;74.87;99604.50;4992920;28;19929;-81
2021/10/01 15:06:54;;;;;;;;;;;;;;;10.86;73.54;99603.47;4994945;28;19922;-78
2021/10/01 15:09:19;;;;;;;;;;;;;;;10.90;73.60;99600.63;4994705;28;19924;-78
2021/10/01 15:11:44;;;;;;;;;;;;;;;10.92;73.46;99597.88;4994792;28;19976;-78
2021/10/01 15:14:09;;;;;;;;;;;;;;;10.92;74.16;99597.88;4993493;28;19917;-78
2021/10/01 15:16:35;;;;;;;;;;;;;;;10.92;73.99;99595.25;4993493;28;19925;-80
2021/10/01 15:19:02;;;;;;;;;;;;;;;10.95;73.98;99602.19;4994600;28;19925;-79
2021/10/01 15:21:27;;;;;;;;;;;;;;;10.91;74.50;99590.84;4994866;28;19913;-79
2021/10/01 15:23:52;;;;;;;;;;;;;;;10.94;73.82;99589.88;4993843;28;19929;-79
2021/10/01 15:26:17;;;;;;;;;;;;;;;10.93;73.79;99596.97;4994586;28;19965;-79
2021/10/01 15:28:43;;;;;;;;;;;;;;;10.95;73.37;99592.44;4992683;28;19918;-81
2021/10/01 15:31:08;;;;;;;;;;;;;;;10.96;73.35;99588.88;4992818;28;19921;-79
2021/10/01 15:33:34;;;;;;;;;;;;;;;10.97;73.21;99587.91;4994318;28;20277;-80
2021/10/01 15:35:59;;;;;;;;;;;;;;;10.95;73.99;99589.78;4993986;28;20393;-78
2021/10/01 15:38:25;;;;;;;;;;;;;;;10.99;74.48;99583.44;4994238;28;19937;-79
2021/10/01 15:40:51;;;;;;;;;;;;;;;10.99;73.38;99583.44;4992721;28;20289;-79
2021/10/01 15:43:16;;;;;;;;;;;;;;;11.02;74.37;99587.69;4993961;28;19984;-78
2021/10/01 15:45:42;;;;;;;;;;;;;;;11.01;73.64;99589.50;4992053;28;19960;-79
2021/10/01 15:48:08;;;;;;;;;;;;;;;11.02;73.45;99593.00;4994104;28;20008;-79
2021/10/01 15:50:34;;;;;;;;;;;;;;;11.07;74.65;99590.97;4993172;28;20321;-78
2021/10/01 15:52:59;;;;;;;;;;;;;;;11.08;73.58;99592.72;4993508;28;19937;-77
2021/10/01 15:55:25;;;;;;;;;;;;;;;11.08;73.82;99588.25;4992385;28;19930;-78
2021/10/01 15:57:51;;;;;;;;;;;;;;;11.13;74.51;99592.50;4991996;28;20038;-80
2021/10/01 16:00:17;;;;;;;;;;;;;;;11.14;73.65;99587.13;4991380;28;19929;-80
2021/10/01 16:02:42;;;;;;;;;;;;;;;11.13;73.70;99581.91;4993806;28;19925;-78
2021/10/01 16:05:08;;;;;;;;;;;;;;;11.11;73.72;99589.06;4993331;28;20399;-81
2021/10/01 16:07:34;;;;;;;;;;;;;;;11.14;73.65;99583.63;4993513;28;19968;-78
2021/10/01 16:10:00;;;;;;;;;;;;;;;11.17;73.85;99588.75;4993731;28;20332;-80
2021/10/01 16:12:25;;;;;;;;;;;;;;;11.14;73.43;99589.78;4992169;28;20397;-81
2021/10/01 16:14:50;;;;;;;;;;;;;;;13.46;75.41;99577.59;4989866;28;19934;-76
2021/10/01 16:17:16;;;;;;;;;;;;;;;17.67;56.34;99563.00;4992033;28;19929;-74
2021/10/01 16:19:44;;;;;;;;;;;;;;;17.84;55.62;99562.56;4993060;28;19969;-75
2021/10/01 16:22:10;;;;;;;;;;;;;;;17.55;59.55;99575.50;4992837;28;19933;-75
2021/10/01 16:24:38;;;;;;;;;;;;;;;17.37;64.19;99567.88;4993313;28;19951;-81
2021/10/01 16:27:04;;;;;;;;;;;;;;;16.98;65.13;99571.69;4991402;28;20428;-75
2021/10/01 16:29:29;;;;;;;;;;;;;;;16.86;64.36;99566.25;4991992;28;20296;-76
2021/10/01 16:31:54;;;;;;;;;;;;;;;17.01;62.68;99571.47;4992774;28;19922;-75
2021/10/01 16:34:20;;;;;;;;;;;;;;;16.88;62.10;99571.47;4993214;28;20278;-75
2021/10/01 16:36:46;;;;;;;;;;;;;;;16.58;62.04;99572.69;4993055;28;19928;-75
2021/10/01 16:39:12;;;;;;;;;;;;;;;16.56;62.99;99568.41;4992544;28;19929;-77
2021/10/01 16:41:38;;;;;;;;;;;;;;;16.50;64.35;99575.91;4992920;28;19925;-75
2021/10/01 16:44:03;;;;;;;;;;;;;;;16.70;64.42;99566.47;4992079;28;19917;-76
2021/10/01 16:46:28;;;;;;;;;;;;;;;16.56;65.88;99568.41;5010882;28;19975;-75
2021/10/01 16:48:54;;;;;;;;;;;;;;;16.51;69.27;99555.38;5012556;28;19924;-74
2021/10/01 16:51:22;;;;;;;;;;;;;;;12.70;99.07;99581.78;5012604;28;19917;-80
2021/10/01 16:53:47;;;;;;;;;;;;;;;12.03;100.00;99581.84;5012097;28;19921;-81
2021/10/01 16:56:12;;;;;;;;;;;;;;;11.95;100.00;99573.38;4994977;28;19999;-77
2021/10/01 16:58:38;;;;;;;;;;;;;;;11.95;100.00;99576.03;5010919;28;19921;-77
2021/10/01 17:01:03;;;;;;;;;;;;;;;11.92;100.00;99570.91;5012265;28;19922;-81
2021/10/01 17:03:29;;;;;;;;;;;;;;;11.91;100.00;99566.50;5011161;28;20334;-79
2021/10/01 17:05:54;;;;;;;;;;;;;;;11.85;100.00;99567.66;5012526;28;20390;-79
2021/10/01 17:08:19;;;;;;;;;;;;;;;11.88;100.00;99561.34;4994800;28;20012;-77
2021/10/01 17:10:45;;;;;;;;;;;;;;;11.93;100.00;99562.84;4993832;28;19928;-77
2021/10/01 17:13:10;;;;;;;;;;;;;;;11.07;100.00;99570.66;4993818;28;19922;-78
2021/10/01 17:15:35;;;;;;;;;;;;;;;9.71;100.00;99569.75;5010641;28;19921;-79
2021/10/01 17:18:01;;;;;;;;;;;;;;;9.09;100.00;99569.63;5012261;28;20379;-78
2021/10/01 17:20:27;;;;;;;;;;;;;;;8.65;100.00;99572.25;4994570;28;20357;-79
2021/10/01 17:22:52;;;;;;;;;;;;;;;8.42;100.00;99581.00;5011425;28;19917;-80
2021/10/01 17:25:18;;;;;;;;;;;;;;;8.11;100.00;99580.34;5011787;28;19932;-80
2021/10/01 17:27:43;;;;;;;;;;;;;;;8.01;100.00;99584.25;5011807;28;19928;-81
2021/10/01 17:30:08;;;;;;;;;;;;;;;7.79;100.00;99573.56;5010159;28;20369;-80
2021/10/01 17:32:34;;;;;;;;;;;;;;;7.71;100.00;99587.03;5011936;28;19929;-77
2021/10/01 17:34:59;;;;;;;;;;;;;;;7.54;100.00;99589.38;5011769;28;19968;-77
2021/10/01 17:37:24;;;;;;;;;;;;;;;7.58;99.29;99594.50;5011924;28;19921;-77
2021/10/01 17:39:50;;;;;;;;;;;;;;;7.45;97.58;99586.13;5012054;28;19924;-76
2021/10/01 17:42:16;;;;;;;;;;;;;;;7.27;97.14;99586.72;5012143;28;19921;-76
2021/10/01 17:44:41;;;;;;;;;;;;;;;7.22;96.69;99586.03;5009466;28;19921;-79
2021/10/01 17:47:07;;;;;;;;;;;;;;;7.04;95.96;99592.75;5010953;28;20052;-76
2021/10/01 17:49:32;;;;;;;;;;;;;;;7.04;95.24;99595.38;5010980;28;19918;-76
2021/10/01 17:51:57;;;;;;;;;;;;;;;6.96;94.92;99590.34;5011105;28;20005;-77
2021/10/01 17:54:23;;;;;;;;;;;;;;;6.92;94.52;99591.34;5011150;28;19924;-76
2021/10/01 17:56:48;;;;;;;;;;;;;;;6.81;93.96;99583.78;5011637;28;19926;-78
2021/10/01 17:59:13;;;;;;;;;;;;;;;6.71;93.83;99584.97;5010449;28;20431;-77
2021/10/01 18:01:38;;;;;;;;;;;;;;;6.63;93.99;99585.19;5009777;28;20381;-77
2021/10/01 18:04:04;;;;;;;;;;;;;;;6.62;93.58;99585.22;5011170;28;19922;-77
2021/10/01 18:06:29;;;;;;;;;;;;;;;6.59;93.47;99591.47;4994083;28;19917;-77
2021/10/01 18:08:55;;;;;;;;;;;;;;;6.50;93.53;99591.72;5011574;28;20287;-77
2021/10/01 18:11:20;;;;;;;;;;;;;;;6.52;92.99;99589.91;5010948;28;21834;-78
2021/10/01 18:13:46;;;;;;;;;;;;;;;6.38;92.94;99592.94;5012045;28;19926;-78
2021/10/01 18:16:11;;;;;;;;;;;;;;;6.31;93.13;99587.00;5014890;28;19968;-76
2021/10/01 18:18:36;;;;;;;;;;;;;;;6.27;92.86;99581.84;5014933;28;19968;-77
2021/10/01 18:21:04;;;;;;;;;;;;;;;6.24;92.81;99582.81;5012640;28;19921;-77
2021/10/01 18:23:31;;;;;;;;;;;;;;;6.19;92.49;99587.34;4996989;28;20727;-76
2021/10/01 18:25:58;;;;;;;;;;;;;;;6.14;92.46;99589.22;5013922;28;20399;-77
2021/10/01 18:28:23;;;;;;;;;;;;;;;6.12;92.42;99588.41;5014122;28;19928;-78
2021/10/01 18:30:49;;;;;;;;;;;;;;;6.10;92.38;99587.59;5014958;28;20296;-77
2021/10/01 18:33:15;;;;;;;;;;;;;;;5.99;92.18;99583.50;5015114;28;20505;-80
2021/10/01 18:35:40;;;;;;;;;;;;;;;6.03;92.07;99591.28;5015189;28;19925;-76
2021/10/01 18:38:06;;;;;;;;;;;;;;;5.98;91.84;99587.03;5014872;28;19929;-79
2021/10/01 18:40:32;;;;;;;;;;;;;;;5.90;92.07;99583.69;5015012;28;19921;-79
2021/10/01 18:42:59;;;;;;;;;;;;;;;5.93;91.71;99575.72;5014248;28;19921;-80
2021/10/01 18:45:25;;;;;;;;;;;;;;;5.97;91.62;99584.44;5013356;28;19927;-79
2021/10/01 18:47:50;;;;;;;;;;;;;;;5.77;91.64;99583.16;5014909;28;19921;-76
2021/10/01 18:50:15;;;;;;;;;;;;;;;5.81;91.23;99586.59;5014344;28;19921;-80
2021/10/01 18:52:41;;;;;;;;;;;;;;;5.75;91.42;99576.25;5014593;28;20012;-77
2021/10/01 18:55:06;;;;;;;;;;;;;;;5.70;91.31;99586.03;5014779;28;19918;-77
2021/10/01 18:57:31;;;;;;;;;;;;;;;5.69;91.08;99584.28;5014168;28;20402;-77
2021/10/01 18:59:58;;;;;;;;;;;;;;;5.64;91.11;99585.25;5012964;28;19922;-77
2021/10/01 19:02:23;;;;;;;;;;;;;;;5.62;91.35;99586.22;5013466;28;19996;-80
2021/10/01 19:04:49;;;;;;;;;;;;;;;5.62;91.10;99592.31;5014186;28;20024;-79
2021/10/01 19:07:15;;;;;;;;;;;;;;;5.62;90.99;99587.06;4996962;28;20430;-79
2021/10/01 19:09:41;;;;;;;;;;;;;;;5.57;91.02;99588.97;5012978;28;19928;-78
2021/10/01 19:12:07;;;;;;;;;;;;;;;5.62;90.54;99581.81;5014446;28;20311;-78
2021/10/01 19:14:32;;;;;;;;;;;;;;;5.53;90.68;99586.44;5012699;28;20443;-80
2021/10/01 19:16:57;;;;;;;;;;;;;;;5.45;90.84;99576.13;5013837;28;20011;-78
2021/10/01 19:19:23;;;;;;;;;;;;;;;5.53;90.37;99581.19;5014248;28;19925;-78
2021/10/01 19:21:49;;;;;;;;;;;;;;;5.42;90.78;99589.34;5013293;28;19917;-77
2021/10/01 19:24:21;;;;;;;;;;;;;;;5.40;90.80;99580.63;5013847;28;19937;-77
2021/10/01 19:27:06;;;;;;;;;;;;;;;5.37;90.70;99584.19;5012765;28;19971;-80
2021/10/01 19:32:16;;;;;;;;;;;;;;;5.36;90.46;99585.13;5014025;28;19924;-79
2021/10/01 19:34:42;;;;;;;;;;;;;;;5.34;90.26;99584.25;4996195;28;19917;-79
2021/10/01 19:37:07;;;;;;;;;;;;;;;5.28;90.38;99587.91;5013743;28;19917;-78